createdAt,value
2018-07-11T00:02:49.838Z,77.61
2018-07-11T00:05:47.440Z,77.72
2018-07-11T00:08:44.658Z,77.65
2018-07-11T00:11:42.441Z,77.40
2018-07-11T00:14:40.210Z,77.53
2018-07-11T00:17:38.273Z,77.12
2018-07-11T00:20:36.363Z,77.41
2018-07-11T00:23:34.434Z,77.29
2018-07-11T00:26:31.886Z,77.42
2018-07-11T00:29:28.953Z,76.95
2018-07-11T00:32:26.194Z,77.54
2018-07-11T00:35:24.466Z,77.31
2018-07-11T00:38:21.641Z,77.14
2018-07-11T00:41:18.885Z,77.36
2018-07-11T00:44:16.587Z,77.35
2018-07-11T00:47:15.191Z,78.01
2018-07-11T00:50:12.662Z,77.06
2018-07-11T00:53:10.070Z,77.04
2018-07-11T00:56:09.570Z,77.18
2018-07-11T00:59:13.953Z,76.92
2018-07-11T01:02:14.230Z,76.83
2018-07-11T01:05:12.153Z,76.44
2018-07-11T01:08:09.769Z,77.13
2018-07-11T01:11:07.954Z,76.68
2018-07-11T01:14:05.378Z,77.28
2018-07-11T01:17:02.510Z,77.53
2018-07-11T01:20:00.860Z,76.90
2018-07-11T01:22:58.803Z,77.65
2018-07-11T01:25:56.183Z,77.39
2018-07-11T01:28:53.822Z,77.56
2018-07-11T01:31:51.655Z,78.08
2018-07-11T01:34:49.627Z,77.63
2018-07-11T01:37:46.754Z,77.49
2018-07-11T01:40:44.800Z,77.18
2018-07-11T01:43:42.815Z,77.59
2018-07-11T01:46:42.226Z,77.45
2018-07-11T01:49:39.718Z,77.00
2018-07-11T01:52:49.206Z,77.21
2018-07-11T01:55:46.358Z,77.13
2018-07-11T01:58:43.552Z,77.01
2018-07-11T02:01:41.587Z,77.47
2018-07-11T02:04:39.027Z,77.76
2018-07-11T02:07:37.212Z,77.76
2018-07-11T02:10:34.713Z,77.50
2018-07-11T02:13:32.279Z,77.26
2018-07-11T02:16:30.111Z,77.99
2018-07-11T02:19:29.878Z,78.26
2018-07-11T02:22:27.126Z,77.57
2018-07-11T02:25:24.562Z,77.28
2018-07-11T02:28:22.018Z,77.07
2018-07-11T02:31:19.399Z,77.32
2018-07-11T02:34:16.466Z,77.63
2018-07-11T02:37:13.579Z,77.46
2018-07-11T02:40:10.857Z,77.09
2018-07-11T02:43:08.238Z,77.57
2018-07-11T02:46:05.825Z,77.67
2018-07-11T02:49:03.941Z,77.97
2018-07-11T02:52:01.447Z,77.32
2018-07-11T02:54:58.878Z,77.46
2018-07-11T02:57:56.590Z,77.58
2018-07-11T03:00:54.692Z,77.33
2018-07-11T03:03:52.827Z,77.89
2018-07-11T03:06:49.919Z,78.26
2018-07-11T03:09:47.046Z,78.61
2018-07-11T03:12:44.050Z,78.37
2018-07-11T03:15:41.675Z,78.41
2018-07-11T03:18:38.771Z,77.71
2018-07-11T03:21:35.895Z,77.92
2018-07-11T03:24:33.115Z,77.93
2018-07-11T03:27:30.200Z,77.71
2018-07-11T03:30:27.248Z,77.43
2018-07-11T03:33:24.417Z,77.67
2018-07-11T03:36:21.626Z,77.89
2018-07-11T03:39:19.796Z,77.92
2018-07-11T03:42:17.044Z,78.00
2018-07-11T03:45:14.341Z,78.12
2018-07-11T03:48:11.468Z,77.98
2018-07-11T03:51:08.663Z,77.50
2018-07-11T03:54:06.156Z,77.85
2018-07-11T03:57:03.354Z,77.46
2018-07-11T04:00:01.462Z,77.72
2018-07-11T04:02:58.937Z,77.40
2018-07-11T04:05:56.225Z,77.41
2018-07-11T04:08:54.414Z,76.98
2018-07-11T04:11:52.595Z,76.97
2018-07-11T04:14:49.690Z,77.24
2018-07-11T04:17:47.539Z,77.15
2018-07-11T04:20:45.182Z,77.10
2018-07-11T04:23:43.088Z,77.26
2018-07-11T04:26:40.287Z,76.68
2018-07-11T04:29:37.448Z,76.68
2018-07-11T04:32:34.648Z,76.15
2018-07-11T04:35:32.017Z,76.09
2018-07-11T04:38:29.432Z,75.88
2018-07-11T04:41:27.559Z,75.94
2018-07-11T04:44:25.821Z,75.58
2018-07-11T04:47:22.999Z,75.18
2018-07-11T04:50:20.139Z,75.37
2018-07-11T04:53:20.143Z,75.05
2018-07-11T04:56:24.754Z,74.64
2018-07-11T04:59:22.341Z,74.64
2018-07-11T05:02:20.335Z,74.12
2018-07-11T05:05:17.855Z,74.00
2018-07-11T05:08:15.336Z,73.56
2018-07-11T05:11:12.852Z,73.19
2018-07-11T05:14:10.652Z,73.49
2018-07-11T05:17:08.314Z,73.87
2018-07-11T05:20:05.759Z,73.23
2018-07-11T05:23:03.346Z,72.30
2018-07-11T05:26:00.414Z,72.86
2018-07-11T05:28:57.687Z,72.86
2018-07-11T05:31:55.135Z,72.67
2018-07-11T05:34:52.583Z,72.33
2018-07-11T05:37:50.055Z,72.95
2018-07-11T05:40:47.589Z,72.43
2018-07-11T05:43:44.861Z,73.13
2018-07-11T05:46:42.215Z,72.95
2018-07-11T05:49:39.702Z,72.08
2018-07-11T05:52:37.331Z,71.95
2018-07-11T05:55:34.830Z,71.51
2018-07-11T05:58:32.043Z,72.47
2018-07-11T06:01:30.039Z,71.89
2018-07-11T06:04:27.295Z,71.50
2018-07-11T06:07:24.547Z,70.83
2018-07-11T06:10:21.819Z,71.56
2018-07-11T06:13:18.871Z,71.13
2018-07-11T06:16:16.151Z,70.65
2018-07-11T06:19:14.088Z,70.80
2018-07-11T06:22:11.386Z,70.83
2018-07-11T06:25:08.585Z,70.78
2018-07-11T06:28:05.714Z,70.35
2018-07-11T06:31:03.896Z,71.29
2018-07-11T06:34:01.906Z,71.42
2018-07-11T06:37:00.184Z,70.69
2018-07-11T06:39:58.381Z,70.95
2018-07-11T06:42:56.415Z,71.95
2018-07-11T06:45:54.198Z,71.40
2018-07-11T06:48:52.422Z,71.43
2018-07-11T06:51:50.077Z,71.09
2018-07-11T06:54:47.961Z,71.29
2018-07-11T06:57:45.149Z,70.52
2018-07-11T07:00:42.497Z,70.77
2018-07-11T07:03:39.884Z,71.32
2018-07-11T07:06:37.203Z,71.46
2018-07-11T07:09:34.402Z,70.34
2018-07-11T07:12:31.899Z,71.52
2018-07-11T07:15:29.309Z,70.39
2018-07-11T07:18:27.402Z,70.78
2018-07-11T07:21:24.826Z,70.98
2018-07-11T07:24:22.035Z,70.51
2018-07-11T07:27:19.418Z,71.34
2018-07-11T07:30:16.618Z,70.47
2018-07-11T07:33:13.930Z,70.90
2018-07-11T07:36:11.101Z,70.53
2018-07-11T07:39:08.091Z,70.76
2018-07-11T07:42:06.379Z,70.60
2018-07-11T07:45:04.398Z,70.72
2018-07-11T07:48:02.400Z,70.91
2018-07-11T07:50:59.639Z,69.79
2018-07-11T07:53:57.969Z,69.77
2018-07-11T07:56:55.950Z,69.84
2018-07-11T07:59:53.890Z,70.42
2018-07-11T08:02:51.211Z,70.40
2018-07-11T08:05:48.371Z,69.13
2018-07-11T08:08:45.734Z,70.29
2018-07-11T08:11:42.943Z,69.09
2018-07-11T08:14:40.539Z,69.95
2018-07-11T08:17:37.834Z,69.22
2018-07-11T08:20:34.939Z,69.17
2018-07-11T08:23:49.421Z,69.36
2018-07-11T08:26:58.660Z,69.00
2018-07-11T08:30:31.143Z,69.34
2018-07-11T08:33:40.633Z,69.39
2018-07-11T08:37:49.646Z,69.52
2018-07-11T08:43:04.398Z,69.78
2018-07-11T08:46:07.817Z,69.67
2018-07-11T08:51:24.234Z,69.46
2018-07-11T08:54:29.718Z,68.90
2018-07-11T09:07:33.045Z,67.67
2018-07-11T09:14:47.950Z,69.27
2018-07-11T09:18:25.962Z,69.85
2018-07-11T09:21:39.334Z,70.52
2018-07-11T09:25:09.019Z,69.89
2018-07-11T09:28:06.540Z,70.64
2018-07-11T09:31:04.126Z,71.60
2018-07-11T09:34:01.600Z,71.09
2018-07-11T09:36:59.471Z,70.67
2018-07-11T09:39:57.106Z,71.22
2018-07-11T09:42:55.210Z,71.44
2018-07-11T09:45:52.513Z,70.92
2018-07-11T09:48:49.578Z,71.56
2018-07-11T09:51:46.983Z,70.15
2018-07-11T09:54:44.001Z,70.14
2018-07-11T09:57:41.964Z,71.78
2018-07-11T10:00:45.219Z,70.72
2018-07-11T10:03:43.295Z,71.57
2018-07-11T10:06:40.535Z,70.71
2018-07-11T10:09:38.554Z,71.42
2018-07-11T10:12:36.591Z,70.94
2018-07-11T10:15:34.471Z,71.19
2018-07-11T10:18:32.042Z,72.70
2018-07-11T10:21:29.849Z,73.05
2018-07-11T10:24:27.326Z,72.58
2018-07-11T10:27:24.923Z,73.29
2018-07-11T10:30:22.023Z,72.70
2018-07-11T10:33:20.270Z,72.20
2018-07-11T10:36:17.522Z,72.43
2018-07-11T10:39:14.959Z,72.48
2018-07-11T10:42:13.028Z,72.87
2018-07-11T10:45:10.151Z,71.68
2018-07-11T10:48:07.240Z,71.68
2018-07-11T10:51:04.699Z,72.62
2018-07-11T10:54:01.895Z,73.42
2018-07-11T10:56:59.347Z,73.40
2018-07-11T10:59:56.843Z,73.66
2018-07-11T11:02:54.489Z,72.99
2018-07-11T11:05:51.730Z,72.90
2018-07-11T11:08:48.918Z,73.35
2018-07-11T11:11:46.131Z,72.62
2018-07-11T11:14:43.647Z,73.51
2018-07-11T11:17:40.702Z,73.64
2018-07-11T11:20:38.735Z,74.49
2018-07-11T11:23:36.566Z,73.55
2018-07-11T11:26:34.747Z,74.04
2018-07-11T11:29:32.536Z,74.14
2018-07-11T11:32:30.716Z,74.12
2018-07-11T11:35:28.395Z,75.83
2018-07-11T11:38:25.574Z,74.76
2018-07-11T11:41:23.786Z,75.02
2018-07-11T11:44:22.830Z,75.26
2018-07-11T11:47:20.406Z,74.67
2018-07-11T11:50:18.041Z,75.36
2018-07-11T11:53:16.207Z,76.63
2018-07-11T11:56:14.184Z,77.04
2018-07-11T11:59:12.003Z,77.21
2018-07-11T12:02:09.045Z,76.86
2018-07-11T12:05:06.418Z,74.78
2018-07-11T12:08:03.554Z,74.62
2018-07-11T12:11:00.830Z,74.96
2018-07-11T12:13:58.126Z,74.47
2018-07-11T12:16:55.870Z,74.89
2018-07-11T12:19:54.393Z,75.16
2018-07-11T12:22:51.816Z,74.78
2018-07-11T12:25:49.662Z,75.18
2018-07-11T12:28:46.798Z,74.02
2018-07-11T12:31:44.546Z,73.21
2018-07-11T12:34:42.235Z,74.33
2018-07-11T12:37:39.915Z,73.66
2018-07-11T12:40:37.632Z,72.71
2018-07-11T12:43:35.197Z,72.49
2018-07-11T12:46:32.811Z,71.94
2018-07-11T12:49:30.250Z,72.12
2018-07-11T12:52:27.661Z,72.01
2018-07-11T12:55:24.895Z,72.03
2018-07-11T12:58:22.021Z,71.96
2018-07-11T13:01:19.270Z,70.78
2018-07-11T13:04:16.647Z,70.72
2018-07-11T13:07:13.682Z,70.27
2018-07-11T13:10:12.847Z,71.40
2018-07-11T13:13:10.382Z,70.20
2018-07-11T13:16:07.566Z,70.62
2018-07-11T13:19:04.695Z,69.54
2018-07-11T13:22:01.848Z,69.12
2018-07-11T13:24:59.815Z,69.07
2018-07-11T13:27:58.090Z,68.63
2018-07-11T13:30:55.660Z,68.15
2018-07-11T13:33:53.819Z,67.53
2018-07-11T13:36:51.064Z,67.23
2018-07-11T13:39:48.463Z,68.53
2018-07-11T13:42:45.503Z,68.55
2018-07-11T13:45:43.662Z,68.63
2018-07-11T13:48:40.970Z,68.25
2018-07-11T13:51:39.066Z,69.19
2018-07-11T13:54:37.090Z,69.52
2018-07-11T13:57:35.081Z,68.06
2018-07-11T14:00:33.158Z,68.93
2018-07-11T14:03:30.521Z,68.77
2018-07-11T14:06:28.502Z,67.62
2018-07-11T14:09:25.847Z,67.69
2018-07-11T14:12:22.898Z,66.84
2018-07-11T14:15:20.894Z,66.83
2018-07-11T14:18:18.884Z,65.72
2018-07-11T14:21:16.087Z,66.30
2018-07-11T14:24:13.546Z,66.63
2018-07-11T14:27:12.456Z,66.66
2018-07-11T14:30:09.450Z,68.57
2018-07-11T14:33:09.610Z,68.38
2018-07-11T14:36:07.091Z,69.71
2018-07-11T14:39:05.279Z,71.45
2018-07-11T14:42:02.419Z,73.57
2018-07-11T14:45:00.107Z,72.49
2018-07-11T14:48:03.615Z,73.64
2018-07-11T14:51:01.561Z,73.03
2018-07-11T14:54:00.182Z,73.79
2018-07-11T14:56:58.349Z,73.34
2018-07-11T14:59:55.531Z,71.90
2018-07-11T15:02:53.484Z,70.77
2018-07-11T15:05:51.414Z,69.81
2018-07-11T15:08:49.344Z,69.28
2018-07-11T15:11:46.822Z,68.20
2018-07-11T15:14:44.878Z,67.96
2018-07-11T15:17:43.944Z,68.02
2018-07-11T15:20:41.874Z,68.32
2018-07-11T15:23:40.064Z,67.82
2018-07-11T15:26:38.278Z,68.30
2018-07-11T15:29:35.434Z,68.99
2018-07-11T15:32:33.502Z,68.53
2018-07-11T15:35:30.672Z,68.57
2018-07-11T15:38:28.628Z,69.87
2018-07-11T15:41:26.736Z,70.26
2018-07-11T15:44:23.788Z,70.32
2018-07-11T15:47:21.022Z,68.80
2018-07-11T15:50:19.107Z,68.94
2018-07-11T15:53:17.174Z,68.95
2018-07-11T15:56:14.535Z,68.44
2018-07-11T15:59:18.619Z,68.17
2018-07-11T16:02:15.747Z,68.44
2018-07-11T16:05:13.660Z,68.04
2018-07-11T16:08:13.130Z,68.91
2018-07-11T16:11:11.844Z,68.68
2018-07-11T16:14:09.832Z,67.69
2018-07-11T16:17:07.715Z,67.26
2018-07-11T16:20:05.818Z,67.51
2018-07-11T16:23:03.563Z,67.19
2018-07-11T16:26:00.830Z,66.94
2018-07-11T16:28:58.230Z,67.86
2018-07-11T16:31:55.641Z,68.24
2018-07-11T16:34:52.791Z,69.08
2018-07-11T16:37:50.206Z,68.29
2018-07-11T16:40:48.308Z,68.99
2018-07-11T16:43:45.628Z,68.67
2018-07-11T16:46:42.940Z,68.93
2018-07-11T16:49:40.249Z,68.84
2018-07-11T16:52:37.559Z,68.36
2018-07-11T16:55:35.804Z,69.22
2018-07-11T16:58:39.186Z,68.76
2018-07-11T17:01:39.580Z,70.27
2018-07-11T17:04:38.916Z,70.46
2018-07-11T17:07:38.190Z,70.18
2018-07-11T17:10:35.420Z,70.10
2018-07-11T17:13:35.434Z,70.85
2018-07-11T17:16:33.042Z,70.75
2018-07-11T17:19:43.700Z,71.05
2018-07-11T17:22:43.341Z,70.93
2018-07-11T17:25:43.709Z,70.97
2018-07-11T17:28:41.219Z,70.56
2018-07-11T17:31:39.333Z,72.50
2018-07-11T17:34:36.695Z,72.71
2018-07-11T17:37:34.750Z,72.92
2018-07-11T17:40:34.810Z,75.45
2018-07-11T17:43:34.150Z,77.12
2018-07-11T17:46:32.268Z,76.76
2018-07-11T17:49:34.810Z,77.16
2018-07-11T17:52:31.971Z,76.66
2018-07-11T17:55:35.380Z,76.99
2018-07-11T17:58:34.390Z,76.92
2018-07-11T18:01:31.774Z,76.39
2018-07-11T18:04:37.520Z,75.90
2018-07-11T18:07:38.503Z,75.99
2018-07-11T18:10:45.800Z,76.85
2018-07-11T18:14:12.327Z,76.76
2018-07-11T18:17:26.139Z,77.22
2018-07-11T18:20:52.418Z,76.59
2018-07-11T18:24:00.666Z,76.61
2018-07-11T18:27:06.267Z,77.48
2018-07-11T18:30:11.471Z,78.02
2018-07-11T18:33:21.798Z,78.09
2018-07-11T18:37:00.857Z,77.27
2018-07-11T18:41:20.385Z,77.17
2018-07-11T18:44:30.653Z,78.09
2018-07-11T18:47:43.020Z,77.25
2018-07-11T18:50:55.179Z,77.18
2018-07-11T18:54:19.802Z,78.11
2018-07-11T18:57:28.114Z,77.78
2018-07-11T19:00:38.298Z,77.46
2018-07-11T19:04:45.173Z,78.06
2018-07-11T19:08:13.312Z,77.84
2018-07-11T19:12:51.379Z,78.81
2018-07-11T19:16:08.886Z,78.24
2018-07-11T19:19:09.985Z,77.53
2018-07-11T19:22:15.671Z,77.13
2018-07-11T19:27:25.307Z,78.00
2018-07-11T19:30:26.226Z,78.34
2018-07-11T19:33:36.238Z,77.67
2018-07-11T19:37:12.401Z,77.84
2018-07-11T19:40:26.823Z,77.06
2018-07-11T19:44:01.234Z,78.09
2018-07-11T19:48:14.091Z,77.86
2018-07-11T19:51:25.728Z,77.66
2018-07-11T19:54:30.724Z,78.03
2018-07-11T19:57:28.270Z,77.33
2018-07-11T20:00:25.502Z,77.42
2018-07-11T20:03:22.829Z,78.15
2018-07-11T20:06:20.277Z,77.76
2018-07-11T20:09:18.478Z,78.17
2018-07-11T20:12:15.644Z,78.32
2018-07-11T20:15:13.062Z,78.03
2018-07-11T20:18:11.151Z,78.72
2018-07-11T20:21:08.711Z,78.37
2018-07-11T20:24:06.000Z,77.61
2018-07-11T20:27:03.111Z,77.40
2018-07-11T20:30:00.808Z,78.08
2018-07-11T20:32:58.145Z,77.83
2018-07-11T20:35:56.025Z,78.37
2018-07-11T20:38:53.675Z,78.08
2018-07-11T20:41:51.651Z,78.38
2018-07-11T20:44:48.810Z,77.87
2018-07-11T20:47:47.935Z,77.76
2018-07-11T20:50:45.015Z,78.45
2018-07-11T20:53:42.136Z,78.54
2018-07-11T20:56:39.467Z,77.95
2018-07-11T20:59:48.720Z,78.52
2018-07-11T21:03:59.078Z,78.04
2018-07-11T21:07:17.639Z,78.48
2018-07-11T21:10:36.082Z,78.33
2018-07-11T21:14:23.949Z,78.55
2018-07-11T21:17:34.643Z,77.91
2018-07-11T21:20:32.563Z,78.82
2018-07-11T21:23:30.233Z,78.42
2018-07-11T21:26:28.700Z,78.69
2018-07-11T21:29:27.201Z,78.57
2018-07-11T21:32:24.850Z,79.01
2018-07-11T21:35:22.399Z,78.41
2018-07-11T21:38:20.240Z,78.50
2018-07-11T21:41:17.808Z,79.18
2018-07-11T21:44:14.990Z,78.36
2018-07-11T21:47:12.585Z,78.99
2018-07-11T21:50:10.610Z,78.70
2018-07-11T21:53:08.150Z,79.09
2018-07-11T21:56:05.216Z,78.70
2018-07-11T21:59:02.596Z,78.54
2018-07-11T22:02:00.664Z,79.26
2018-07-11T22:04:58.146Z,78.96
2018-07-11T22:07:55.519Z,78.93
2018-07-11T22:10:53.406Z,78.61
2018-07-11T22:13:51.548Z,79.20
2018-07-11T22:16:48.843Z,78.94
2018-07-11T22:19:50.432Z,79.27
2018-07-11T22:22:47.862Z,79.41
2018-07-11T22:25:45.759Z,78.53
2018-07-11T22:28:42.893Z,78.85
2018-07-11T22:31:40.442Z,78.99
2018-07-11T22:34:38.325Z,78.97
2018-07-11T22:37:36.070Z,78.82
2018-07-11T22:40:33.263Z,79.17
2018-07-11T22:43:31.131Z,78.91
2018-07-11T22:46:28.092Z,79.36
2018-07-11T22:49:26.169Z,78.61
2018-07-11T22:52:23.607Z,78.48
2018-07-11T22:55:21.561Z,78.83
2018-07-11T22:58:18.985Z,78.69
2018-07-11T23:01:16.264Z,78.77
2018-07-11T23:04:13.787Z,78.68
2018-07-11T23:07:11.642Z,78.79
2018-07-11T23:10:08.987Z,78.97
2018-07-11T23:13:05.878Z,78.85
2018-07-11T23:16:03.266Z,78.95
2018-07-11T23:19:09.721Z,78.08
2018-07-11T23:22:06.987Z,78.40
2018-07-11T23:25:04.742Z,78.22
2018-07-11T23:28:01.759Z,78.94
2018-07-11T23:30:59.653Z,78.83
2018-07-11T23:33:56.621Z,78.59
2018-07-11T23:36:53.755Z,78.73
2018-07-11T23:39:51.172Z,78.37
2018-07-11T23:42:48.370Z,78.04
2018-07-11T23:45:45.598Z,79.16
2018-07-11T23:48:42.674Z,78.84
2018-07-11T23:51:40.043Z,79.09
2018-07-11T23:54:37.886Z,79.10
2018-07-11T23:57:35.403Z,79.22
